Huvudsida
METAR-TAF:

METAR-TAF

Flygplatser :

Bergens flygplats. Flesland

Bergen, Norge

latitud: 60-17N, longitud: 005-14E, höjd: 5 m

Aktuellt väderrapport

Denna rapport gjordes för 35 minuter sedan, klockan 21:50 UTC
Vind 4 kt från ost/nordost, varierande mellan nord och ost/sydost
Temperatur 1°C
Fuktighet 64%
Tryck 999 hPa
Sikt 10 km eller mer
Spridda moln på en höjd av 2500 ft
Brutna moln på en höjd av 3500 ft
lätta snöbyar

METAR: ENBR 112150Z 06004KT 350V110 9999 -SHSN SCT025 BKN035 01/M05 Q0999 RMK WIND 1200FT 10008KT

Tid: 23:25 (22:25 UTC)

Väderprognos

Prognos gäller från 11 kl. 18 UTC till 12 kl. 18 UTC
Vind 7 kt från ost
Sikt 10 km eller mer
Spridda moln på en höjd av 4000 ft
Brutna moln på en höjd av 7000 ft

TAF: ENBR 1118/1218 08007KT 9999 SCT040 BKN070

Aktuella väderrapporter och prognoser från 4000 flygplatser (METAR- och TAF-rapporter).

De tillgängliga stationerna syns som gula och röda prickar på kartan.

För musen över prickarna för att se namnen på stationerna.

Klicka sedan för att få väderrapporter och prognoser.

För att ändra kartan: Klicka på de gröna knapparna med ett svart kors på för att zooma in; den gröna knappen med ett streck på för att zooma ut; eller på de gröna pilarna för angränsande kartor.


METAR-TAF: